Time;durP1;ratioP1;P1;durP2;ratioP2;P2;SDS_P1;SDS_P2;PMS_P1;PMS_P2;Temp;Humidity;BMP_temperature;BMP_pressure;BME280_temperature;BME280_humidity;BME280_pressure;Samples;Min_cycle;Max_cycle;Signal;HPM_P1;HPM_P2
2022/05/18 00:00:05;;;;;;;7.32;5.40;;;18.80;99.90;;;;;;5054149;28;20124;-83
2022/05/18 00:02:31;;;;;;;9.18;4.70;;;18.80;99.90;;;;;;5038015;28;20040;-84
2022/05/18 00:04:56;;;;;;;9.73;5.93;;;18.80;99.90;;;;;;5037647;28;20454;-83
2022/05/18 00:07:22;;;;;;;6.93;5.15;;;18.70;99.90;;;;;;5054662;28;20067;-83
2022/05/18 00:09:50;;;;;;;7.68;5.28;;;18.60;99.90;;;;;;5054015;28;20530;-83
2022/05/18 00:12:17;;;;;;;8.18;4.82;;;18.60;99.90;;;;;;5035653;28;20032;-84
2022/05/18 00:14:43;;;;;;;7.15;5.40;;;18.50;99.90;;;;;;5054184;28;20153;-84
2022/05/18 00:17:09;;;;;;;8.18;4.95;;;18.50;99.90;;;;;;5037575;28;20123;-84
2022/05/18 00:19:35;;;;;;;7.47;5.03;;;18.40;99.90;;;;;;5037645;28;20119;-83
2022/05/18 00:22:01;;;;;;;7.03;5.40;;;18.40;99.90;;;;;;5037114;28;20190;-83
2022/05/18 00:24:27;;;;;;;6.60;5.00;;;18.40;99.90;;;;;;5037710;28;20036;-83
2022/05/18 00:26:52;;;;;;;7.00;5.00;;;18.30;99.90;;;;;;5053735;28;20036;-83
2022/05/18 00:29:18;;;;;;;9.35;4.82;;;18.30;99.90;;;;;;5037744;28;20052;-83
2022/05/18 00:31:46;;;;;;;10.15;5.40;;;18.30;99.90;;;;;;5053701;28;20040;-84
2022/05/18 00:34:14;;;;;;;8.63;5.45;;;18.20;99.90;;;;;;5054221;28;20362;-83
2022/05/18 00:36:40;;;;;;;9.73;4.70;;;18.20;99.90;;;;;;5053737;28;20037;-84
2022/05/18 00:39:06;;;;;;;6.93;4.90;;;18.20;99.90;;;;;;5020671;28;20043;-84
2022/05/18 00:41:32;;;;;;;9.50;5.03;;;18.10;99.90;;;;;;5051367;28;20048;-83
2022/05/18 00:43:58;;;;;;;8.00;5.30;;;18.20;99.90;;;;;;5036893;28;20438;-84
2022/05/18 00:46:25;;;;;;;9.52;5.18;;;18.10;99.90;;;;;;5020784;28;20042;-83
2022/05/18 00:48:53;;;;;;;9.55;5.15;;;18.10;99.90;;;;;;5036594;28;20102;-83
2022/05/18 00:51:38;;;;;;;8.27;5.63;;;18.10;99.90;;;;;;5051229;28;20048;-83
2022/05/18 00:54:13;;;;;;;9.57;5.28;;;18.10;99.90;;;;;;5051679;28;20067;-83
2022/05/18 00:56:49;;;;;;;11.13;5.13;;;18.00;99.90;;;;;;5051100;28;20073;-83
2022/05/18 00:59:31;;;;;;;6.35;4.97;;;17.90;99.90;;;;;;5037228;28;20412;-83
2022/05/18 01:01:59;;;;;;;8.90;5.25;;;18.00;99.90;;;;;;5052363;28;20032;-83
2022/05/18 01:04:26;;;;;;;8.38;5.43;;;17.90;99.90;;;;;;5037060;28;20038;-84
2022/05/18 01:07:02;;;;;;;10.43;5.18;;;17.90;99.90;;;;;;5020152;28;20384;-84
2022/05/18 01:09:34;;;;;;;7.72;5.43;;;17.80;99.90;;;;;;5053719;28;20021;-83
2022/05/18 01:12:00;;;;;;;10.38;5.65;;;17.80;99.90;;;;;;5036237;28;20070;-83
2022/05/18 01:14:30;;;;;;;7.50;5.35;;;17.80;99.90;;;;;;5020499;28;20076;-84
2022/05/18 01:16:56;;;;;;;9.52;5.20;;;17.70;99.90;;;;;;5052698;28;20094;-84
2022/05/18 01:19:47;;;;;;;7.18;4.90;;;17.60;99.90;;;;;;5036686;28;20107;-84
2022/05/18 01:22:28;;;;;;;8.27;5.07;;;17.60;99.90;;;;;;5034699;28;20052;-85
2022/05/18 01:25:37;;;;;;;9.27;6.20;;;17.60;99.90;;;;;;5051206;28;20040;-83
2022/05/18 01:28:04;;;;;;;8.32;5.28;;;17.60;99.90;;;;;;5052650;28;20090;-83
2022/05/18 01:30:32;;;;;;;9.00;5.50;;;17.60;99.90;;;;;;5019882;28;20127;-83
2022/05/18 01:32:59;;;;;;;8.93;5.38;;;17.60;99.90;;;;;;5052778;28;20040;-84
2022/05/18 01:35:28;;;;;;;10.30;5.50;;;17.60;99.90;;;;;;5052944;28;20044;-84
2022/05/18 01:37:57;;;;;;;10.27;5.95;;;17.50;99.90;;;;;;5052385;28;20044;-84
2022/05/18 01:40:41;;;;;;;8.48;5.93;;;17.50;99.90;;;;;;5036421;28;20039;-84
2022/05/18 01:43:14;;;;;;;7.47;5.55;;;17.50;99.90;;;;;;5049168;28;20059;-83
2022/05/18 01:45:40;;;;;;;9.38;6.00;;;17.50;99.90;;;;;;5035215;28;20036;-83
2022/05/18 01:48:13;;;;;;;7.00;5.43;;;17.40;99.90;;;;;;5051924;28;20119;-84
2022/05/18 01:50:39;;;;;;;14.07;5.80;;;17.40;99.90;;;;;;5036003;28;20067;-84
2022/05/18 01:53:05;;;;;;;8.80;6.18;;;17.40;99.90;;;;;;5052253;28;20098;-82
2022/05/18 01:55:32;;;;;;;9.43;5.72;;;17.40;99.90;;;;;;5036346;28;20068;-83
2022/05/18 01:57:58;;;;;;;8.07;5.88;;;17.40;99.90;;;;;;5052026;28;20052;-84
2022/05/18 02:00:24;;;;;;;8.07;5.15;;;17.30;99.90;;;;;;5035889;28;20033;-83
2022/05/18 02:02:50;;;;;;;;;;;17.30;99.90;;;;;;5036591;28;20035;-84
2022/05/18 02:05:16;;;;;;;8.32;5.57;;;17.30;99.90;;;;;;5052379;28;19917;-83
2022/05/18 02:07:41;;;;;;;9.43;5.72;;;17.30;99.90;;;;;;5019564;28;20079;-84
2022/05/18 02:10:08;;;;;;;8.55;5.72;;;17.30;99.90;;;;;;5052380;28;20055;-83
2022/05/18 02:12:34;;;;;;;9.65;5.60;;;17.20;99.90;;;;;;5035913;28;20044;-83
2022/05/18 02:15:01;;;;;;;12.73;5.82;;;17.20;99.90;;;;;;5039516;28;20041;-83
2022/05/18 02:17:26;;;;;;;9.15;5.65;;;17.20;99.90;;;;;;5022911;28;20041;-83
2022/05/18 02:19:52;;;;;;;8.00;6.63;;;17.20;99.90;;;;;;5056597;28;20044;-83
2022/05/18 02:22:18;;;;;;;7.93;5.70;;;17.20;99.90;;;;;;5055990;28;20072;-84
2022/05/18 02:24:44;;;;;;;10.88;5.75;;;17.20;99.90;;;;;;5023546;28;20036;-83
2022/05/18 02:27:10;;;;;;;9.45;5.80;;;17.10;99.90;;;;;;5055689;28;20045;-84
2022/05/18 02:29:35;;;;;;;8.52;5.72;;;17.10;99.90;;;;;;5056240;28;20060;-84
2022/05/18 02:32:02;;;;;;;7.35;5.40;;;17.10;99.90;;;;;;5039462;28;20036;-83
2022/05/18 02:34:27;;;;;;;;;;;17.20;99.90;;;;;;5056677;28;20038;-83
2022/05/18 02:36:53;;;;;;;10.07;5.68;;;17.10;99.90;;;;;;5039322;28;19922;-83
2022/05/18 02:39:21;;;;;;;9.50;5.82;;;17.10;99.90;;;;;;5055746;28;20533;-83
2022/05/18 02:41:50;;;;;;;7.90;5.10;;;17.10;99.90;;;;;;5023385;28;20370;-84
2022/05/18 02:44:17;;;;;;;8.75;5.40;;;17.10;99.90;;;;;;5055945;28;20043;-84
2022/05/18 02:46:43;;;;;;;7.47;5.60;;;17.10;99.90;;;;;;5055958;28;20045;-84
2022/05/18 02:49:09;;;;;;;9.95;5.60;;;17.10;99.90;;;;;;5039333;28;20085;-83
2022/05/18 02:51:35;;;;;;;9.52;5.97;;;17.00;99.90;;;;;;5039157;28;20047;-83
2022/05/18 02:56:05;;;;;;;10.35;5.53;;;17.00;99.90;;;;;;5038895;28;20396;-84
2022/05/18 02:56:46;;;;;;;7.70;5.47;;;17.00;99.90;;;;;;5041774;28;20037;-84
2022/05/18 02:59:12;;;;;;;9.30;6.00;;;16.90;99.90;;;;;;5022280;28;20037;-84
2022/05/18 03:01:39;;;;;;;9.25;5.40;;;16.90;99.90;;;;;;5039433;28;20119;-84
2022/05/18 03:04:05;;;;;;;9.27;5.95;;;16.80;99.90;;;;;;5038818;28;20121;-84
2022/05/18 03:06:31;;;;;;;9.98;5.38;;;16.80;99.90;;;;;;5039113;28;20075;-83
2022/05/18 03:08:56;;;;;;;8.55;5.70;;;16.80;99.90;;;;;;5053207;28;20385;-83
2022/05/18 03:11:22;;;;;;;9.52;5.90;;;16.80;99.90;;;;;;5055469;28;20044;-84
2022/05/18 03:13:48;;;;;;;9.23;5.72;;;16.80;99.90;;;;;;5022460;28;20042;-84
2022/05/18 03:16:14;;;;;;;9.98;6.10;;;16.70;99.90;;;;;;5038567;28;20044;-84
2022/05/18 03:18:40;;;;;;;8.98;5.75;;;16.70;99.90;;;;;;5055187;28;20116;-85
2022/05/18 03:24:08;;;;;;;9.10;5.80;;;16.60;99.90;;;;;;4966893;28;20125;-83
2022/05/18 03:26:35;;;;;;;8.63;5.32;;;16.60;99.90;;;;;;5021737;28;20040;-83
2022/05/18 03:29:00;;;;;;;11.68;6.20;;;16.60;99.90;;;;;;5038489;28;20400;-84
2022/05/18 03:31:27;;;;;;;6.88;5.15;;;16.50;99.90;;;;;;5022389;28;20047;-83
2022/05/18 03:33:55;;;;;;;;;;;16.50;99.90;;;;;;5039069;28;20037;-83
2022/05/18 03:36:20;;;;;;;8.90;5.97;;;16.50;99.90;;;;;;5054777;28;19917;-85
2022/05/18 03:38:48;;;;;;;8.38;6.05;;;16.50;99.90;;;;;;5038297;28;20128;-84
2022/05/18 03:41:14;;;;;;;8.82;5.57;;;16.50;99.90;;;;;;5054686;28;20036;-84
2022/05/18 03:43:40;;;;;;;8.77;5.95;;;16.50;99.90;;;;;;5038294;28;20068;-83
2022/05/18 03:46:06;;;;;;;11.07;5.68;;;16.50;99.90;;;;;;5037853;28;20040;-83
2022/05/18 03:48:33;;;;;;;7.60;5.65;;;16.50;99.90;;;;;;5054998;28;20067;-83
2022/05/18 03:51:00;;;;;;;8.45;5.30;;;16.50;99.90;;;;;;5055213;28;20082;-83
2022/05/18 03:53:27;;;;;;;8.13;5.95;;;16.50;99.90;;;;;;5038357;28;20043;-84
2022/05/18 03:55:54;;;;;;;8.73;5.72;;;16.50;99.90;;;;;;5054723;28;20036;-84
2022/05/18 03:58:20;;;;;;;;;;;16.40;99.90;;;;;;5054807;28;20037;-83
2022/05/18 04:00:48;;;;;;;9.55;5.90;;;16.40;99.90;;;;;;5053810;28;19916;-85
2022/05/18 04:03:16;;;;;;;8.77;5.53;;;16.20;99.90;;;;;;5036490;28;20182;-83
2022/05/18 04:05:42;;;;;;;9.57;5.95;;;16.40;99.90;;;;;;5053685;28;20036;-84
2022/05/18 04:08:10;;;;;;;8.85;5.85;;;16.40;99.90;;;;;;5054030;28;20036;-83
2022/05/18 04:10:38;;;;;;;7.13;5.25;;;16.40;99.90;;;;;;5054493;28;20040;-84
2022/05/18 04:13:05;;;;;;;10.02;5.88;;;16.40;99.90;;;;;;5054137;28;20044;-83
2022/05/18 04:15:31;;;;;;;9.75;5.90;;;16.40;99.90;;;;;;5037745;28;20044;-83
2022/05/18 04:17:58;;;;;;;8.90;5.47;;;16.40;99.90;;;;;;5037536;28;20045;-84
2022/05/18 04:20:24;;;;;;;9.82;5.63;;;16.40;99.90;;;;;;5021375;28;20540;-84
2022/05/18 04:22:51;;;;;;;9.00;5.85;;;16.40;99.90;;;;;;5037681;28;20110;-83
2022/05/18 04:25:19;;;;;;;9.63;5.90;;;16.40;99.90;;;;;;5054295;28;20063;-85
2022/05/18 04:27:47;;;;;;;7.90;6.10;;;16.40;99.90;;;;;;5036605;28;20071;-85
2022/05/18 04:30:14;;;;;;;9.75;5.88;;;16.30;99.90;;;;;;5022762;28;20048;-86
2022/05/18 04:32:41;;;;;;;8.30;5.28;;;16.30;99.90;;;;;;5037666;28;20044;-83
2022/05/18 04:35:08;;;;;;;9.68;5.80;;;16.30;99.90;;;;;;5053878;28;20068;-85
2022/05/18 04:37:38;;;;;;;8.95;5.70;;;16.40;99.90;;;;;;5034877;28;20036;-84
2022/05/18 04:40:05;;;;;;;7.63;5.47;;;16.40;99.90;;;;;;5054381;28;20028;-84
2022/05/18 04:42:31;;;;;;;8.68;5.68;;;16.50;99.90;;;;;;5038292;28;20032;-84
2022/05/18 04:44:56;;;;;;;9.50;6.25;;;16.50;99.90;;;;;;5039769;28;20074;-84
2022/05/18 04:47:24;;;;;;;10.13;5.28;;;16.50;99.90;;;;;;5025117;28;20068;-82
2022/05/18 04:49:50;;;;;;;8.25;6.10;;;16.50;99.90;;;;;;5046739;28;20043;-83
2022/05/18 04:52:20;;;;;;;8.45;5.72;;;16.60;99.90;;;;;;5039996;28;20044;-83
2022/05/18 04:54:47;;;;;;;7.97;5.72;;;16.60;99.90;;;;;;5037207;28;20052;-83
2022/05/18 04:57:12;;;;;;;;;;;16.60;99.90;;;;;;5040573;28;20091;-83
2022/05/18 04:59:38;;;;;;;7.82;6.00;;;16.60;99.90;;;;;;5056995;28;19916;-83
2022/05/18 05:02:05;;;;;;;8.80;6.18;;;16.60;99.90;;;;;;5058213;28;20040;-83
2022/05/18 05:04:31;;;;;;;7.55;5.88;;;16.70;99.90;;;;;;5040351;28;20032;-83
2022/05/18 05:06:57;;;;;;;10.70;5.95;;;16.70;99.90;;;;;;5040009;28;20032;-83
2022/05/18 05:09:24;;;;;;;8.20;6.15;;;16.70;99.90;;;;;;5040255;28;20408;-83
2022/05/18 05:11:51;;;;;;;7.60;5.65;;;16.80;99.90;;;;;;5040342;28;20098;-82
2022/05/18 05:14:17;;;;;;;9.13;5.88;;;16.90;99.90;;;;;;5057114;28;20109;-83
2022/05/18 05:16:43;;;;;;;7.70;5.55;;;17.00;99.90;;;;;;5025270;28;20111;-83
2022/05/18 05:19:09;;;;;;;10.20;6.30;;;17.10;99.90;;;;;;5041670;28;20082;-83
2022/05/18 05:21:35;;;;;;;8.30;5.75;;;17.20;99.90;;;;;;5025690;28;20088;-83
2022/05/18 05:24:03;;;;;;;11.57;5.95;;;17.20;99.90;;;;;;5058171;28;20416;-83
2022/05/18 05:26:31;;;;;;;10.35;6.32;;;17.30;99.90;;;;;;5076947;28;20044;-82
2022/05/18 05:28:57;;;;;;;9.60;6.05;;;17.40;99.90;;;;;;5041947;28;20032;-83
2022/05/18 05:31:22;;;;;;;12.77;7.25;;;17.50;99.90;;;;;;5005360;28;20161;-83
2022/05/18 05:33:48;;;;;;;10.38;6.30;;;17.70;99.90;;;;;;5027883;28;20385;-83
2022/05/18 05:36:14;;;;;;;7.90;6.10;;;17.80;99.90;;;;;;5042482;28;20096;-83
2022/05/18 05:38:40;;;;;;;10.00;6.25;;;18.00;99.90;;;;;;5044795;28;20040;-84
2022/05/18 05:41:05;;;;;;;11.50;6.45;;;18.10;99.90;;;;;;5042863;28;20032;-83
2022/05/18 05:43:31;;;;;;;10.35;6.55;;;18.30;99.90;;;;;;5042549;28;20066;-83
2022/05/18 05:46:05;;;;;;;11.48;6.68;;;18.50;99.90;;;;;;5045097;28;20051;-83
2022/05/18 05:48:33;;;;;;;10.18;6.07;;;18.60;99.90;;;;;;5048906;28;20123;-83
2022/05/18 05:51:00;;;;;;;9.20;6.50;;;18.70;99.90;;;;;;5041175;28;20097;-84
2022/05/18 05:53:26;;;;;;;10.98;6.70;;;18.90;99.90;;;;;;5043256;28;20036;-83
2022/05/18 05:55:53;;;;;;;10.15;5.95;;;19.10;99.90;;;;;;5059193;28;20044;-83
2022/05/18 05:58:20;;;;;;;9.55;6.07;;;19.50;99.90;;;;;;5008034;28;20445;-83
2022/05/18 06:00:47;;;;;;;8.85;5.97;;;20.00;99.90;;;;;;5006577;28;20056;-83
2022/05/18 06:03:17;;;;;;;9.65;6.45;;;20.40;99.90;;;;;;5021201;28;20048;-83
2022/05/18 06:05:43;;;;;;;17.27;7.07;;;20.80;99.90;;;;;;5041624;28;20039;-83
2022/05/18 06:08:09;;;;;;;;;;;20.90;99.90;;;;;;5057792;28;20121;-83
2022/05/18 06:10:36;;;;;;;10.95;6.90;;;21.20;99.90;;;;;;5025945;28;20376;-82
2022/05/18 06:13:06;;;;;;;10.55;6.38;;;21.40;99.90;;;;;;5042306;28;20045;-82
2022/05/18 06:15:32;;;;;;;8.13;6.25;;;21.60;99.90;;;;;;5041929;28;20050;-83
2022/05/18 06:17:57;;;;;;;12.07;6.57;;;21.80;99.90;;;;;;5041654;28;20037;-83
2022/05/18 06:20:23;;;;;;;10.00;6.70;;;22.00;99.90;;;;;;5025247;28;20092;-82
2022/05/18 06:22:49;;;;;;;10.60;7.03;;;22.10;99.90;;;;;;5024202;28;20504;-84
2022/05/18 06:25:15;;;;;;;10.10;6.55;;;22.20;99.90;;;;;;5024928;28;20036;-83
2022/05/18 06:27:41;;;;;;;10.40;6.35;;;22.20;99.90;;;;;;5044433;28;20404;-83
2022/05/18 06:30:13;;;;;;;12.98;6.63;;;22.50;99.90;;;;;;5045330;28;20064;-82
2022/05/18 06:32:39;;;;;;;7.90;6.50;;;22.60;99.90;;;;;;5038921;28;20040;-83
2022/05/18 06:35:06;;;;;;;10.60;7.03;;;22.90;99.90;;;;;;5058943;28;20416;-82
2022/05/18 06:37:32;;;;;;;10.20;6.82;;;22.90;99.90;;;;;;5060681;28;20504;-82
2022/05/18 06:39:57;;;;;;;;;;;23.00;99.90;;;;;;5044387;28;20045;-83
2022/05/18 06:42:23;;;;;;;10.25;6.45;;;23.10;99.90;;;;;;5060021;28;19972;-83
2022/05/18 06:44:49;;;;;;;10.52;6.85;;;23.30;99.90;;;;;;5060437;28;20063;-83
2022/05/18 06:47:15;;;;;;;9.73;6.80;;;23.40;99.90;;;;;;5045701;28;20108;-83
2022/05/18 06:49:41;;;;;;;13.20;7.07;;;23.50;99.90;;;;;;5046049;28;20036;-82
2022/05/18 06:52:09;;;;;;;;;;;23.70;99.90;;;;;;5063613;28;20104;-82
2022/05/18 06:54:36;;;;;;;8.35;6.70;;;23.80;99.90;;;;;;5042265;28;19959;-83
2022/05/18 06:57:02;;;;;;;10.30;6.53;;;23.90;99.90;;;;;;5042661;28;20047;-83
2022/05/18 06:59:28;;;;;;;11.00;7.15;;;23.90;99.90;;;;;;5060107;28;20558;-83
2022/05/18 07:01:53;;;;;;;;;;;24.20;99.90;;;;;;5015126;28;20032;-83
2022/05/18 07:04:19;;;;;;;8.48;7.07;;;24.20;99.90;;;;;;5065272;28;19916;-83
2022/05/18 07:06:45;;;;;;;;;;;24.50;99.90;;;;;;5047263;28;20041;-82
2022/05/18 07:09:13;;;;;;;9.00;6.97;;;24.50;99.90;;;;;;5047967;28;19917;-82
2022/05/18 07:11:40;;;;;;;9.20;7.55;;;24.50;99.90;;;;;;5046748;28;20040;-83
2022/05/18 07:14:06;;;;;;;9.60;7.00;;;24.70;99.90;;;;;;5049844;28;20101;-82
2022/05/18 07:16:33;;;;;;;10.05;7.68;;;24.80;99.90;;;;;;5072033;28;20039;-83
2022/05/18 07:18:59;;;;;;;13.27;7.03;;;24.90;99.90;;;;;;5037265;28;20102;-83
2022/05/18 07:21:26;;;;;;;9.90;7.30;;;25.00;99.90;;;;;;5049385;28;20048;-83
2022/05/18 07:23:53;;;;;;;12.10;7.88;;;25.20;99.90;;;;;;5063830;28;20045;-83
2022/05/18 07:26:21;;;;;;;8.30;6.93;;;25.50;99.90;;;;;;5048604;28;20037;-83
2022/05/18 07:28:47;;;;;;;13.18;8.13;;;25.70;99.90;;;;;;5065960;28;20048;-83
2022/05/18 07:31:13;;;;;;;11.70;7.55;;;25.90;99.90;;;;;;5049789;28;20444;-82
2022/05/18 07:33:39;;;;;;;10.98;7.25;;;25.90;99.90;;;;;;5033064;28;20083;-83
2022/05/18 07:36:05;;;;;;;10.80;7.05;;;26.00;99.90;;;;;;5013560;28;20045;-83
2022/05/18 07:38:33;;;;;;;10.05;6.97;;;25.90;99.90;;;;;;5044518;28;20116;-83
2022/05/18 07:41:00;;;;;;;11.40;7.40;;;25.90;99.90;;;;;;5045707;28;20118;-82
2022/05/18 07:43:26;;;;;;;8.55;6.93;;;26.10;99.90;;;;;;5028321;28;20037;-83
2022/05/18 07:45:54;;;;;;;10.65;6.53;;;26.20;99.90;;;;;;5048335;28;20081;-82
2022/05/18 07:48:21;;;;;;;9.38;6.47;;;26.30;99.90;;;;;;5063768;28;20047;-83
2022/05/18 07:50:46;;;;;;;10.23;6.72;;;26.70;99.90;;;;;;5047536;28;20060;-82
2022/05/18 07:53:13;;;;;;;9.80;5.82;;;26.50;99.90;;;;;;5030217;28;20078;-83
2022/05/18 07:55:39;;;;;;;9.15;5.80;;;26.70;99.90;;;;;;5063979;28;20299;-84
2022/05/18 07:58:07;;;;;;;7.75;5.82;;;27.00;99.90;;;;;;5065398;28;20043;-83
2022/05/18 08:00:33;;;;;;;10.38;5.43;;;27.10;99.90;;;;;;5031461;28;20423;-83
2022/05/18 08:02:59;;;;;;;8.27;5.60;;;27.20;99.90;;;;;;5048086;28;20036;-82
2022/05/18 08:05:25;;;;;;;8.35;5.18;;;27.30;99.90;;;;;;5050153;28;20064;-82
2022/05/18 08:07:51;;;;;;;8.38;5.18;;;27.20;99.90;;;;;;5064442;28;20051;-82
2022/05/18 08:15:51;;;;;;;6.88;5.30;;;27.40;99.90;;;;;;5065544;28;20508;-82
2022/05/18 08:18:18;;;;;;;5.82;4.97;;;27.60;99.90;;;;;;5045685;28;20047;-82
2022/05/18 08:20:45;;;;;;;5.90;4.97;;;27.60;99.90;;;;;;5011168;28;20095;-82
2022/05/18 08:23:10;;;;;;;8.35;4.97;;;28.10;99.90;;;;;;5059551;28;20037;-83
2022/05/18 08:25:37;;;;;;;5.28;4.28;;;28.60;99.60;;;;;;5043069;28;20074;-83
2022/05/18 08:28:03;;;;;;;5.85;3.95;;;28.80;99.60;;;;;;5058628;28;20032;-83
2022/05/18 08:30:30;;;;;;;5.60;2.83;;;29.00;99.70;;;;;;5044779;28;20420;-83
2022/05/18 08:33:00;;;;;;;4.93;2.60;;;29.20;98.80;;;;;;5015589;28;20028;-82
2022/05/18 08:35:27;;;;;;;6.82;2.45;;;29.50;97.40;;;;;;5045861;28;20408;-83
2022/05/18 08:37:54;;;;;;;5.15;2.05;;;29.60;96.70;;;;;;5060061;28;20048;-82
2022/05/18 08:40:29;;;;;;;4.93;2.33;;;29.80;96.10;;;;;;5060638;28;20032;-82
2022/05/18 08:43:07;;;;;;;3.80;2.10;;;29.90;95.40;;;;;;5058996;28;20032;-82
2022/05/18 08:45:37;;;;;;;5.03;2.92;;;29.90;94.80;;;;;;5041065;28;20076;-82
2022/05/18 08:48:09;;;;;;;5.13;2.58;;;30.10;95.90;;;;;;5058000;28;20036;-82
2022/05/18 08:50:38;;;;;;;5.80;3.03;;;30.30;94.80;;;;;;5041236;28;20488;-83
2022/05/18 08:53:06;;;;;;;7.28;2.60;;;30.60;94.30;;;;;;5038130;28;20041;-82
2022/05/18 08:55:44;;;;;;;4.85;2.72;;;30.50;94.70;;;;;;5057952;28;20489;-82
2022/05/18 08:58:30;;;;;;;5.38;3.15;;;30.80;94.80;;;;;;5041651;28;20544;-82
2022/05/18 09:01:03;;;;;;;5.38;3.40;;;30.60;93.90;;;;;;5055824;28;20178;-83
2022/05/18 09:03:54;;;;;;;6.05;3.08;;;30.70;94.10;;;;;;5055963;28;20043;-83
2022/05/18 09:06:34;;;;;;;5.75;3.30;;;30.70;94.60;;;;;;5055909;28;20484;-83
2022/05/18 09:12:12;;;;;;;4.45;3.55;;;31.10;93.50;;;;;;5045470;28;20047;-82
2022/05/18 09:14:40;;;;;;;6.93;3.85;;;31.50;93.60;;;;;;5038001;28;20083;-83
2022/05/18 09:17:23;;;;;;;9.55;3.95;;;31.40;93.50;;;;;;5038177;28;20044;-82
2022/05/18 09:19:53;;;;;;;6.25;4.15;;;31.40;93.20;;;;;;5054827;28;20033;-83
2022/05/18 09:22:25;;;;;;;7.30;3.90;;;31.60;93.60;;;;;;5054104;28;20088;-83
2022/05/18 09:25:24;;;;;;;9.90;4.15;;;31.80;93.30;;;;;;5054808;28;20032;-82
2022/05/18 09:28:17;;;;;;;6.10;3.70;;;31.80;93.10;;;;;;5043244;28;20174;-83
2022/05/18 09:30:49;;;;;;;6.88;3.90;;;31.90;92.60;;;;;;5052545;28;20373;-82
2022/05/18 09:33:56;;;;;;;7.28;3.95;;;31.90;92.60;;;;;;5038099;28;20051;-82
2022/05/18 09:36:25;;;;;;;;;;;32.30;92.40;;;;;;5019633;28;20052;-82
2022/05/18 09:39:00;;;;;;;9.82;4.60;;;32.20;91.40;;;;;;5053896;28;19925;-82
2022/05/18 09:41:31;;;;;;;5.20;4.43;;;32.30;91.80;;;;;;5054815;28;20490;-82
2022/05/18 09:44:17;;;;;;;7.80;4.65;;;32.60;92.10;;;;;;5050031;28;20040;-83
2022/05/18 09:46:43;;;;;;;8.13;5.03;;;32.40;91.50;;;;;;5053911;28;20037;-83
2022/05/18 09:49:20;;;;;;;8.68;4.47;;;32.60;91.00;;;;;;5053902;28;20047;-82
2022/05/18 09:51:46;;;;;;;8.57;4.97;;;32.60;91.30;;;;;;5037586;28;20040;-82
2022/05/18 09:54:12;;;;;;;7.00;5.18;;;32.90;91.20;;;;;;5053938;28;20119;-82
2022/05/18 09:56:50;;;;;;;11.70;4.75;;;32.90;91.00;;;;;;5037550;28;20178;-82
2022/05/18 09:59:25;;;;;;;6.20;4.35;;;33.00;90.30;;;;;;5050007;28;20086;-82
2022/05/18 10:07:30;;;;;;;10.25;4.32;;;33.30;90.20;;;;;;5053889;28;20055;-83
2022/05/18 10:10:20;;;;;;;6.53;4.18;;;33.60;90.00;;;;;;5037024;28;20041;-82
2022/05/18 10:12:56;;;;;;;6.90;4.00;;;33.70;89.10;;;;;;5036801;28;20032;-82
2022/05/18 10:15:24;;;;;;;8.00;3.50;;;33.80;90.00;;;;;;5051512;28;20050;-82
2022/05/18 10:17:56;;;;;;;10.48;3.88;;;33.90;89.10;;;;;;5036691;28;20083;-83
2022/05/18 10:20:30;;;;;;;8.88;4.80;;;33.90;89.40;;;;;;5050052;28;20528;-82
2022/05/18 10:22:59;;;;;;;8.38;3.97;;;33.60;88.70;;;;;;5050936;28;20054;-82
2022/05/18 10:25:27;;;;;;;7.10;3.78;;;33.60;89.00;;;;;;5053595;28;20228;-83
2022/05/18 10:27:54;;;;;;;10.57;4.72;;;33.90;89.10;;;;;;5053244;28;20090;-82
2022/05/18 10:30:31;;;;;;;6.97;4.40;;;33.90;87.90;;;;;;5036868;28;20051;-82
2022/05/18 10:33:08;;;;;;;10.35;4.50;;;33.80;89.00;;;;;;5046751;28;20396;-83
2022/05/18 10:35:47;;;;;;;8.27;4.43;;;34.00;87.10;;;;;;5053584;28;20062;-82
2022/05/18 10:38:21;;;;;;;7.70;5.00;;;33.80;88.00;;;;;;5054862;28;20044;-82
2022/05/18 10:40:48;;;;;;;9.32;5.53;;;33.90;89.30;;;;;;5056439;28;20039;-82
2022/05/18 10:43:23;;;;;;;9.98;4.75;;;33.90;89.30;;;;;;5056893;28;20086;-82
2022/05/18 10:45:59;;;;;;;11.68;6.15;;;34.30;89.20;;;;;;5056266;28;20396;-82
2022/05/18 10:48:27;;;;;;;;;;;34.40;88.70;;;;;;5056146;28;20048;-82
2022/05/18 10:51:11;;;;;;;7.32;5.43;;;34.30;88.90;;;;;;5039269;28;19922;-82
2022/05/18 10:53:40;;;;;;;9.52;6.32;;;34.20;89.70;;;;;;5056587;28;20037;-83
2022/05/18 10:56:08;;;;;;;12.82;6.20;;;34.50;88.30;;;;;;5056458;28;20048;-83
2022/05/18 10:58:39;;;;;;;9.80;6.05;;;34.60;88.90;;;;;;5056179;28;20041;-82
2022/05/18 11:01:19;;;;;;;8.52;6.50;;;34.60;87.80;;;;;;5040247;28;20504;-83
2022/05/18 11:04:06;;;;;;;13.38;7.18;;;34.70;87.10;;;;;;5053689;28;20071;-82
2022/05/18 11:06:37;;;;;;;8.38;5.95;;;34.50;86.00;;;;;;5072038;28;20089;-83
2022/05/18 11:09:34;;;;;;;9.70;5.20;;;34.20;87.70;;;;;;5054130;28;20097;-82
2022/05/18 11:12:05;;;;;;;8.27;5.00;;;34.70;87.20;;;;;;5049621;28;20045;-82
2022/05/18 11:14:50;;;;;;;7.50;4.68;;;34.90;86.60;;;;;;5039680;28;20043;-83
2022/05/18 11:17:19;;;;;;;7.85;5.15;;;34.80;87.20;;;;;;5039483;28;20036;-83
2022/05/18 11:19:59;;;;;;;9.55;5.57;;;34.80;85.50;;;;;;5055626;28;20054;-82
2022/05/18 11:22:39;;;;;;;6.55;4.95;;;34.70;86.50;;;;;;5039369;28;20508;-82
2022/05/18 11:25:07;;;;;;;8.43;5.18;;;34.80;86.90;;;;;;5055873;28;20044;-82
2022/05/18 11:27:51;;;;;;;8.07;5.05;;;34.90;86.70;;;;;;5055846;28;20040;-83
2022/05/18 11:30:27;;;;;;;7.75;4.70;;;34.90;86.70;;;;;;5056003;28;20033;-82
2022/05/18 11:33:11;;;;;;;8.00;4.68;;;34.90;86.40;;;;;;5053885;28;20037;-83
2022/05/18 11:35:58;;;;;;;9.18;4.57;;;35.30;85.20;;;;;;5054747;28;20040;-83
2022/05/18 11:38:32;;;;;;;7.55;4.22;;;35.30;83.50;;;;;;5038972;28;20044;-83
2022/05/18 11:41:17;;;;;;;5.75;3.63;;;34.90;83.50;;;;;;5055650;28;20461;-83
2022/05/18 11:43:58;;;;;;;7.72;4.43;;;34.70;85.30;;;;;;5036796;28;20373;-83
2022/05/18 11:46:38;;;;;;;6.80;4.47;;;34.70;84.60;;;;;;5054555;28;20037;-83
2022/05/18 11:49:16;;;;;;;5.88;4.13;;;34.40;85.40;;;;;;5039313;28;20499;-83
2022/05/18 11:52:12;;;;;;;7.28;3.97;;;34.20;85.30;;;;;;5053407;28;20404;-82
2022/05/18 11:54:56;;;;;;;7.87;5.40;;;34.10;85.50;;;;;;5053674;28;20396;-82
2022/05/18 11:57:51;;;;;;;7.72;4.90;;;34.10;85.90;;;;;;5055594;28;20032;-82
2022/05/18 12:00:56;;;;;;;9.00;5.10;;;34.00;86.20;;;;;;5037286;28;20040;-83
2022/05/18 12:03:55;;;;;;;12.00;8.10;;;34.00;87.60;;;;;;4994421;28;20033;-82
2022/05/18 12:06:32;;;;;;;11.48;8.50;;;33.60;88.10;;;;;;4993259;28;20659;-82
2022/05/18 12:09:00;;;;;;;9.75;7.57;;;33.40;89.10;;;;;;5040591;28;20182;-82
2022/05/18 12:11:47;;;;;;;10.18;6.50;;;33.10;89.60;;;;;;5054848;28;20063;-82
2022/05/18 12:14:52;;;;;;;10.00;6.97;;;33.00;88.80;;;;;;5055081;28;20063;-82
2022/05/18 12:17:38;;;;;;;12.13;9.20;;;33.00;90.60;;;;;;5050765;28;20028;-82
2022/05/18 12:20:32;;;;;;;10.90;7.82;;;33.20;89.80;;;;;;5054302;28;20120;-82
2022/05/18 12:23:01;;;;;;;8.77;6.15;;;33.20;89.70;;;;;;5053156;28;20047;-83
2022/05/18 12:25:29;;;;;;;8.82;6.90;;;33.30;89.50;;;;;;5052323;28;20052;-83
2022/05/18 12:27:58;;;;;;;8.93;6.25;;;33.50;88.30;;;;;;5037743;28;20068;-83
2022/05/18 12:30:27;;;;;;;11.95;7.65;;;33.70;89.00;;;;;;5054758;28;20049;-82
2022/05/18 12:32:53;;;;;;;7.10;5.95;;;33.80;88.40;;;;;;5055398;28;20104;-83
2022/05/18 12:35:35;;;;;;;9.48;5.95;;;33.50;89.10;;;;;;5038100;28;20584;-82
2022/05/18 12:38:12;;;;;;;9.70;6.68;;;34.00;88.70;;;;;;5054054;28;20036;-83
2022/05/18 12:41:01;;;;;;;9.10;7.18;;;34.10;89.10;;;;;;5054798;28;20036;-82
2022/05/18 12:43:33;;;;;;;9.52;6.38;;;34.10;87.30;;;;;;5053719;28;20040;-83
2022/05/18 12:46:08;;;;;;;8.13;6.57;;;33.30;89.70;;;;;;5052125;28;20422;-83
2022/05/18 12:48:43;;;;;;;11.75;6.05;;;33.10;90.10;;;;;;5054832;28;20106;-83
2022/05/18 12:51:11;;;;;;;8.27;5.30;;;32.80;90.20;;;;;;5037973;28;20051;-83
2022/05/18 12:53:49;;;;;;;6.70;6.00;;;32.50;90.50;;;;;;5053939;28;20048;-83
2022/05/18 12:56:20;;;;;;;8.88;5.55;;;32.20;91.00;;;;;;5051923;28;20047;-83
2022/05/18 12:59:01;;;;;;;7.75;6.20;;;31.90;90.80;;;;;;5053266;28;20036;-83
2022/05/18 13:01:35;;;;;;;9.43;6.57;;;31.80;90.90;;;;;;5053455;28;20116;-83
2022/05/18 13:04:10;;;;;;;9.18;6.68;;;31.70;91.60;;;;;;5035907;28;20087;-82
2022/05/18 13:06:35;;;;;;;9.25;5.85;;;31.60;92.00;;;;;;5052463;28;20087;-82
2022/05/18 13:09:01;;;;;;;8.43;6.25;;;31.40;92.00;;;;;;5037258;28;20028;-83
2022/05/18 13:11:33;;;;;;;9.18;6.53;;;31.10;92.30;;;;;;5053973;28;20041;-83
2022/05/18 13:13:58;;;;;;;10.07;7.03;;;31.00;92.40;;;;;;5054047;28;20369;-82
2022/05/18 13:16:39;;;;;;;9.82;7.45;;;31.10;92.10;;;;;;5037485;28;20040;-83
2022/05/18 13:19:18;;;;;;;10.18;8.20;;;31.00;92.50;;;;;;5036261;28;20540;-83
2022/05/18 13:21:46;;;;;;;11.57;7.75;;;31.00;92.30;;;;;;5050232;28;20044;-82